Bunker Hill, West Virginia
Current Conditions -  °F | °C
As of 5:53 PM on Saturday 25 Oct 2014 (Local Time) from KMRB Reporting Station
Clear Clear  
Wind Chill: 69°   Ceiling: Unl
Heat Index: 69°   Visibility: 10mi
Dew Point: 41°   Wind: 8mph
Humidity: 36%   Direction: 230°SW
Pressure: 29.74"   Gusts: NA
Location:  39.33°N, 78.05°W
Report Text: KMRB 252153Z AUTO 23007KT 10SM CLR 21/05 A2974 RMK AO2 SLP071 T02060050 TSNO $
Loading
Personal Weather Stations






























Interactive Weather Map
Tropical Storm Tracking
New forecast layout! Learn more

10-Day Weather Forecast

Advertisements
Track Severe Weather on mobile